Time;durP1;ratioP1;P1;durP2;ratioP2;P2;SDS_P1;SDS_P2;PMS_P1;PMS_P2;Temp;Humidity;BMP_temperature;BMP_pressure;BME280_temperature;BME280_humidity;BME280_pressure;Samples;Min_cycle;Max_cycle;Signal;HPM_P1;HPM_P2
2021/01/01 00:01:24;;;;;;;146.98;92.28;;;3.30;96.40;;;;;;5006987;28;20037;-44
2021/01/01 00:03:50;;;;;;;145.13;90.03;;;3.30;96.30;;;;;;5007170;28;20030;-43
2021/01/01 00:06:15;;;;;;;115.80;76.80;;;3.30;96.40;;;;;;5006740;28;20045;-43
2021/01/01 00:08:41;;;;;;;118.00;74.20;;;3.30;96.30;;;;;;5007632;28;20070;-43
2021/01/01 00:11:06;;;;;;;126.80;76.43;;;3.30;96.40;;;;;;5007372;28;20026;-44
2021/01/01 00:13:32;;;;;;;118.95;76.32;;;3.30;96.30;;;;;;5006634;28;20038;-44
2021/01/01 00:15:57;;;;;;;136.35;87.05;;;3.30;96.30;;;;;;5007452;28;20022;-43
2021/01/01 00:18:23;;;;;;;142.75;89.35;;;3.30;96.40;;;;;;5006515;28;20494;-43
2021/01/01 00:20:48;;;;;;;136.50;88.35;;;3.30;96.50;;;;;;5007390;28;20021;-43
2021/01/01 00:23:14;;;;;;;145.10;90.47;;;3.30;96.80;;;;;;5006979;28;20053;-43
2021/01/01 00:25:39;;;;;;;141.00;86.57;;;3.30;96.60;;;;;;5007136;28;20500;-43
2021/01/01 00:28:05;;;;;;;130.95;83.28;;;3.20;96.60;;;;;;5007456;28;20053;-43
2021/01/01 00:30:30;;;;;;;124.13;79.15;;;3.20;96.50;;;;;;5006458;28;20061;-43
2021/01/01 00:32:56;;;;;;;123.15;74.20;;;3.20;96.60;;;;;;5007036;28;20045;-43
2021/01/01 00:35:21;;;;;;;122.07;77.15;;;3.20;96.60;;;;;;5006457;28;20107;-43
2021/01/01 00:37:47;;;;;;;128.38;79.72;;;3.20;96.60;;;;;;5007134;28;20018;-43
2021/01/01 00:40:13;;;;;;;121.75;74.60;;;3.10;96.60;;;;;;5006471;28;20030;-43
2021/01/01 00:42:38;;;;;;;127.88;75.35;;;3.10;96.80;;;;;;5006717;28;20417;-43
2021/01/01 00:45:05;;;;;;;125.47;76.82;;;3.10;96.90;;;;;;5007017;28;20049;-43
2021/01/01 00:47:31;;;;;;;132.70;77.38;;;3.10;96.90;;;;;;5006102;28;20558;-43
2021/01/01 00:49:56;;;;;;;115.38;68.75;;;3.10;96.80;;;;;;5006640;28;20172;-42
2021/01/01 00:52:22;;;;;;;101.82;62.15;;;3.10;96.80;;;;;;5006377;28;20029;-43
2021/01/01 00:54:47;;;;;;;103.63;62.50;;;3.10;96.60;;;;;;5006997;28;20033;-43
2021/01/01 00:57:13;;;;;;;101.95;59.72;;;3.10;96.60;;;;;;5006300;28;20026;-43
2021/01/01 00:59:39;;;;;;;92.22;55.20;;;3.10;96.60;;;;;;5006249;28;20084;-42
2021/01/01 01:02:04;;;;;;;91.88;55.30;;;3.10;96.60;;;;;;5004092;28;20465;-43
2021/01/01 01:04:30;;;;;;;81.82;49.50;;;3.00;96.60;;;;;;4994258;28;20046;-44
2021/01/01 01:06:55;;;;;;;80.55;49.47;;;3.00;96.50;;;;;;4987147;28;20029;-43
2021/01/01 01:09:21;;;;;;;80.07;48.22;;;2.90;96.60;;;;;;4993780;28;20033;-43
2021/01/01 01:11:46;;;;;;;82.68;50.17;;;2.80;96.60;;;;;;5003066;28;20030;-43
2021/01/01 01:14:12;;;;;;;89.45;53.17;;;2.80;96.50;;;;;;5006018;28;20063;-43
2021/01/01 01:16:38;;;;;;;92.47;54.33;;;2.70;96.50;;;;;;5006334;28;20036;-42
2021/01/01 01:19:03;;;;;;;94.60;54.35;;;2.70;96.60;;;;;;5006814;28;20065;-44
2021/01/01 01:21:29;;;;;;;91.47;54.30;;;2.60;96.50;;;;;;5005888;28;20245;-43
2021/01/01 01:23:56;;;;;;;92.95;55.88;;;2.60;96.60;;;;;;5006628;28;20037;-44
2021/01/01 01:26:22;;;;;;;88.88;54.17;;;2.60;96.60;;;;;;5006162;28;20113;-43
2021/01/01 01:28:48;;;;;;;96.05;56.28;;;2.50;96.60;;;;;;5005954;28;20540;-43
2021/01/01 01:31:14;;;;;;;90.70;55.65;;;2.50;96.60;;;;;;5005826;28;20018;-43
2021/01/01 01:33:40;;;;;;;83.93;50.67;;;2.40;96.60;;;;;;5006641;28;20335;-44
2021/01/01 01:36:06;;;;;;;79.28;47.35;;;2.40;96.60;;;;;;5006230;28;20018;-43
2021/01/01 01:38:32;;;;;;;105.47;61.88;;;2.40;96.60;;;;;;5005724;28;20029;-43
2021/01/01 01:40:57;;;;;;;97.65;57.38;;;2.40;96.90;;;;;;5006560;28;20109;-43
2021/01/01 01:43:24;;;;;;;80.60;48.10;;;2.40;96.90;;;;;;5005262;28;20496;-44
2021/01/01 01:45:49;;;;;;;86.43;49.58;;;2.40;96.90;;;;;;5006362;28;20749;-43
2021/01/01 01:48:21;;;;;;;77.35;47.13;;;2.40;96.90;;;;;;5005769;28;20042;-43
2021/01/01 01:50:47;;;;;;;78.27;44.13;;;2.30;96.80;;;;;;5006145;28;20041;-42
2021/01/01 01:53:13;;;;;;;77.60;44.42;;;2.30;96.80;;;;;;5006132;28;20030;-44
2021/01/01 01:55:40;;;;;;;76.07;43.95;;;2.30;96.80;;;;;;5006337;28;20042;-43
2021/01/01 01:58:06;;;;;;;80.05;47.45;;;2.20;96.70;;;;;;5005930;28;20431;-43
2021/01/01 02:03:02;;;;;;;89.80;53.67;;;2.20;96.80;;;;;;5005998;28;20030;-43
2021/01/01 02:05:28;;;;;;;95.88;57.88;;;2.10;96.80;;;;;;5005148;28;20574;-44
2021/01/01 02:07:54;;;;;;;97.60;58.95;;;2.10;96.80;;;;;;5006123;28;20268;-44
2021/01/01 02:10:20;;;;;;;103.00;61.85;;;2.10;96.80;;;;;;5007603;28;20497;-43
2021/01/01 02:12:48;;;;;;;105.22;63.88;;;2.00;96.80;;;;;;5009676;28;20116;-44
2021/01/01 02:15:13;;;;;;;104.03;62.42;;;2.00;96.80;;;;;;5009403;28;20037;-43
2021/01/01 02:17:39;;;;;;;98.85;60.63;;;2.00;96.80;;;;;;5009461;28;20041;-43
2021/01/01 02:20:06;;;;;;;101.38;61.35;;;2.00;96.80;;;;;;5009716;28;20034;-43
2021/01/01 02:22:37;;;;;;;103.88;63.90;;;2.00;96.80;;;;;;5009021;28;20060;-43
2021/01/01 02:25:09;;;;;;;109.18;66.10;;;2.00;96.90;;;;;;5009245;28;20076;-43
2021/01/01 02:27:36;;;;;;;116.47;71.28;;;1.90;96.90;;;;;;5009349;28;20053;-43
2021/01/01 02:30:02;;;;;;;119.05;70.97;;;1.90;96.90;;;;;;5009433;28;20061;-43
2021/01/01 02:32:27;;;;;;;120.85;72.28;;;1.90;96.90;;;;;;5008524;28;20030;-43
2021/01/01 02:34:53;;;;;;;118.32;70.25;;;1.90;96.90;;;;;;5009345;28;20030;-44
2021/01/01 02:37:18;;;;;;;118.22;72.05;;;1.90;96.90;;;;;;5008705;28;20144;-43
2021/01/01 02:39:44;;;;;;;114.30;69.68;;;1.90;96.90;;;;;;5009219;28;20030;-43
2021/01/01 02:42:09;;;;;;;119.97;73.20;;;1.90;97.00;;;;;;5008997;28;20034;-44
2021/01/01 02:44:35;;;;;;;116.88;70.95;;;1.90;97.00;;;;;;5008829;28;20509;-44
2021/01/01 02:47:04;;;;;;;105.45;65.03;;;1.90;96.90;;;;;;5009080;28;20026;-43
2021/01/01 02:49:30;;;;;;;129.57;76.65;;;1.90;96.90;;;;;;5008102;28;20054;-42
2021/01/01 02:51:56;;;;;;;120.40;72.07;;;1.90;97.00;;;;;;5009265;28;20037;-43
2021/01/01 02:54:22;;;;;;;118.68;73.28;;;1.90;97.00;;;;;;5008124;28;20030;-43
2021/01/01 02:56:47;;;;;;;114.00;70.57;;;1.90;97.10;;;;;;5009076;28;20055;-44
2021/01/01 02:59:13;;;;;;;113.63;69.07;;;1.80;97.00;;;;;;5008514;28;20033;-43
2021/01/01 03:01:39;;;;;;;116.25;70.57;;;1.90;97.10;;;;;;5008146;28;20044;-42
2021/01/01 03:04:04;;;;;;;105.90;66.13;;;1.80;97.00;;;;;;5008996;28;20121;-43
2021/01/01 03:06:30;;;;;;;114.68;68.82;;;1.80;97.00;;;;;;5008343;28;20144;-43
2021/01/01 03:08:56;;;;;;;108.32;67.15;;;1.80;97.00;;;;;;5008322;28;20067;-42
2021/01/01 03:11:21;;;;;;;107.00;65.20;;;1.70;96.90;;;;;;5008276;28;20029;-42
2021/01/01 03:13:47;;;;;;;115.22;71.07;;;1.70;96.90;;;;;;5008187;28;20080;-43
2021/01/01 03:16:12;;;;;;;114.63;71.88;;;1.70;96.90;;;;;;5008597;28;20026;-43
2021/01/01 03:18:38;;;;;;;107.03;65.10;;;1.70;97.00;;;;;;5008644;28;20498;-43
2021/01/01 03:21:04;;;;;;;112.30;66.25;;;1.70;97.00;;;;;;5007361;28;20626;-43
2021/01/01 03:23:30;;;;;;;116.45;70.57;;;1.70;97.10;;;;;;5008100;28;20038;-43
2021/01/01 03:25:55;;;;;;;113.10;69.13;;;1.70;97.10;;;;;;5008108;28;20084;-42
2021/01/01 03:28:21;;;;;;;109.20;67.88;;;1.80;97.10;;;;;;5007243;28;20118;-43
2021/01/01 03:30:47;;;;;;;112.20;69.05;;;1.70;97.00;;;;;;5008717;28;20515;-43
2021/01/01 03:33:12;;;;;;;113.85;69.28;;;1.70;97.00;;;;;;5008159;28;20026;-43
2021/01/01 03:35:38;;;;;;;184.45;84.82;;;1.70;97.10;;;;;;5007799;28;20036;-43
2021/01/01 03:38:03;;;;;;;132.77;74.05;;;1.70;97.10;;;;;;5008350;28;20776;-43
2021/01/01 03:40:29;;;;;;;143.50;73.15;;;1.70;97.10;;;;;;5007663;28;20037;-43
2021/01/01 03:42:54;;;;;;;235.05;70.88;;;1.70;97.10;;;;;;5007481;28;20405;-43
2021/01/01 03:45:20;;;;;;;143.20;70.68;;;1.70;97.10;;;;;;5007919;28;20075;-43
2021/01/01 03:47:46;;;;;;;195.85;73.60;;;1.80;97.20;;;;;;5008156;28;20038;-43
2021/01/01 03:50:11;;;;;;;164.27;68.50;;;1.80;97.20;;;;;;5007088;28;20103;-43
2021/01/01 03:52:37;;;;;;;146.13;68.88;;;1.80;97.20;;;;;;5007634;28;20021;-43
2021/01/01 03:55:03;;;;;;;162.23;64.68;;;1.80;97.20;;;;;;5008193;28;20115;-43
2021/01/01 03:57:28;;;;;;;316.63;77.13;;;1.80;97.10;;;;;;5006631;28;20543;-43
2021/01/01 03:59:54;;;;;;;195.60;76.07;;;1.80;97.20;;;;;;5007804;28;20029;-43
2021/01/01 04:02:19;;;;;;;161.07;71.55;;;1.90;97.20;;;;;;5007195;28;20544;-44
2021/01/01 04:04:45;;;;;;;159.50;68.47;;;1.90;97.10;;;;;;5007485;28;20484;-43
2021/01/01 04:07:10;;;;;;;169.98;66.40;;;1.90;97.10;;;;;;5007495;28;20042;-43
2021/01/01 04:09:36;;;;;;;163.55;61.22;;;1.90;97.00;;;;;;5007630;28;20485;-44
2021/01/01 04:12:01;;;;;;;154.05;64.57;;;1.80;97.00;;;;;;5007121;28;20112;-44
2021/01/01 04:14:27;;;;;;;176.30;76.90;;;1.80;97.00;;;;;;5007215;28;20822;-44
2021/01/01 04:16:52;;;;;;;152.05;70.25;;;1.80;97.10;;;;;;5007860;28;20092;-43
2021/01/01 04:19:20;;;;;;;102.72;68.25;;;1.80;97.10;;;;;;5006935;28;20564;-43
2021/01/01 04:21:47;;;;;;;146.63;67.82;;;1.90;97.10;;;;;;5007676;28;20087;-43
2021/01/01 04:24:14;;;;;;;102.30;67.00;;;1.90;97.00;;;;;;5006153;28;20769;-44
2021/01/01 04:26:40;;;;;;;188.63;76.10;;;1.90;97.00;;;;;;5007614;28;20049;-43
2021/01/01 04:29:05;;;;;;;142.00;68.05;;;1.80;97.00;;;;;;5007534;28;20022;-42
2021/01/01 04:31:33;;;;;;;145.48;69.88;;;1.80;97.00;;;;;;5006265;28;20034;-43
2021/01/01 04:33:59;;;;;;;234.88;81.53;;;1.80;97.00;;;;;;5007080;28;20553;-43
2021/01/01 04:36:24;;;;;;;167.43;81.53;;;1.80;97.00;;;;;;5006907;28;20081;-43
2021/01/01 04:38:50;;;;;;;166.68;78.82;;;1.80;97.10;;;;;;5006578;28;20049;-42
2021/01/01 04:41:16;;;;;;;170.88;77.63;;;1.80;97.10;;;;;;5006522;28;20030;-43
2021/01/01 04:43:41;;;;;;;192.40;80.57;;;1.80;97.30;;;;;;5007361;28;20034;-43
2021/01/01 04:46:08;;;;;;;157.90;78.22;;;1.90;97.10;;;;;;5006856;28;20038;-43
2021/01/01 04:48:33;;;;;;;159.02;84.25;;;1.90;97.10;;;;;;5006286;28;20033;-43
2021/01/01 04:50:59;;;;;;;157.10;78.63;;;1.90;97.10;;;;;;5007228;28;20065;-43
2021/01/01 04:53:29;;;;;;;153.98;77.15;;;1.90;97.00;;;;;;5005982;28;20022;-43
2021/01/01 04:55:55;;;;;;;137.95;75.38;;;1.90;97.00;;;;;;5006848;28;20564;-42
2021/01/01 04:58:21;;;;;;;169.85;81.55;;;2.00;97.00;;;;;;5006699;28;20037;-43
2021/01/01 05:00:46;;;;;;;145.00;73.45;;;1.90;97.00;;;;;;5006504;28;20018;-43
2021/01/01 05:03:12;;;;;;;185.85;75.78;;;1.90;97.00;;;;;;5006585;28;20030;-43
2021/01/01 05:05:46;;;;;;;159.88;76.72;;;1.90;96.90;;;;;;5007027;28;20033;-43
2021/01/01 05:08:11;;;;;;;133.00;72.15;;;1.90;97.00;;;;;;5006128;28;20035;-43
2021/01/01 05:10:37;;;;;;;139.10;75.72;;;1.90;97.00;;;;;;5006818;28;20029;-44
2021/01/01 05:13:13;;;;;;;133.75;72.95;;;1.90;97.00;;;;;;5007312;28;20030;-44
2021/01/01 05:15:39;;;;;;;183.70;79.13;;;1.80;97.00;;;;;;5006968;28;20590;-43
2021/01/01 05:18:17;;;;;;;166.52;83.00;;;1.80;97.00;;;;;;5006705;28;20028;-43
2021/01/01 05:20:43;;;;;;;170.30;87.25;;;1.80;97.00;;;;;;5006574;28;20739;-42
2021/01/01 05:23:23;;;;;;;132.07;81.72;;;1.80;97.00;;;;;;5006574;28;20619;-42
2021/01/01 05:26:08;;;;;;;136.85;82.07;;;1.80;97.00;;;;;;5006787;28;20064;-43
2021/01/01 05:28:51;;;;;;;124.95;75.95;;;1.70;96.90;;;;;;4988907;28;20383;-44
2021/01/01 05:31:22;;;;;;;117.72;70.35;;;1.70;97.00;;;;;;5006098;28;20524;-43
2021/01/01 05:34:00;;;;;;;116.45;70.28;;;1.70;97.00;;;;;;5006887;28;20026;-44
2021/01/01 05:36:38;;;;;;;115.88;68.82;;;1.60;97.00;;;;;;5005753;28;20026;-43
2021/01/01 05:39:22;;;;;;;111.35;65.10;;;1.60;97.00;;;;;;5006893;28;20022;-42
2021/01/01 05:41:52;;;;;;;104.68;64.07;;;1.50;97.30;;;;;;5006378;28;20048;-42
2021/01/01 05:44:29;;;;;;;118.13;64.35;;;1.50;97.10;;;;;;5006718;28;20064;-44
2021/01/01 05:47:06;;;;;;;106.78;64.82;;;1.50;97.10;;;;;;5010800;28;20037;-44
2021/01/01 05:49:34;;;;;;;102.57;61.40;;;1.40;97.30;;;;;;5009366;28;20537;-43
2021/01/01 05:52:12;;;;;;;115.25;67.55;;;1.40;97.10;;;;;;5010264;28;20080;-43
2021/01/01 05:54:42;;;;;;;113.50;69.32;;;1.40;97.10;;;;;;5010447;28;20088;-43
2021/01/01 05:57:09;;;;;;;112.93;68.65;;;1.40;97.20;;;;;;5009733;28;20076;-44
2021/01/01 05:59:37;;;;;;;111.47;65.72;;;1.30;97.20;;;;;;5010052;28;20034;-43
2021/01/01 06:02:05;;;;;;;110.22;64.78;;;1.30;97.20;;;;;;5010610;28;20065;-43
2021/01/01 06:04:31;;;;;;;113.88;69.88;;;1.30;97.20;;;;;;5009027;28;20112;-42
2021/01/01 06:06:59;;;;;;;106.25;63.35;;;1.30;97.30;;;;;;5010631;28;20038;-43
2021/01/01 06:09:27;;;;;;;119.57;66.15;;;1.30;97.30;;;;;;5009670;28;20080;-43
2021/01/01 06:11:59;;;;;;;112.10;66.72;;;1.30;97.30;;;;;;5010226;28;20026;-43
2021/01/01 06:14:41;;;;;;;115.28;69.20;;;1.40;97.40;;;;;;5009561;28;20044;-42
2021/01/01 06:17:09;;;;;;;116.75;68.90;;;1.40;97.40;;;;;;5009777;28;20026;-43
2021/01/01 06:19:53;;;;;;;114.45;69.72;;;1.40;97.40;;;;;;5010072;28;20041;-43
2021/01/01 06:22:27;;;;;;;111.15;64.45;;;1.40;97.40;;;;;;5009390;28;20503;-43
2021/01/01 06:24:58;;;;;;;107.65;64.25;;;1.50;97.40;;;;;;5010009;28;20382;-42
2021/01/01 06:27:25;;;;;;;99.43;60.28;;;1.50;97.40;;;;;;5008922;28;20041;-43
2021/01/01 06:29:56;;;;;;;96.57;57.22;;;1.50;97.30;;;;;;5009881;28;20041;-43
2021/01/01 06:32:22;;;;;;;101.38;59.65;;;1.50;97.30;;;;;;5008931;28;20160;-43
2021/01/01 06:34:48;;;;;;;99.45;59.03;;;1.50;97.30;;;;;;5010124;28;20145;-42
2021/01/01 06:37:37;;;;;;;93.40;55.60;;;1.50;97.30;;;;;;5009123;28;20030;-42
2021/01/01 06:40:04;;;;;;;91.82;54.70;;;1.60;97.40;;;;;;5009673;28;20551;-42
2021/01/01 06:42:50;;;;;;;90.97;53.70;;;1.60;97.30;;;;;;5009366;28;20125;-43
2021/01/01 06:45:39;;;;;;;92.43;55.38;;;1.60;97.30;;;;;;5008454;28;20070;-42
2021/01/01 06:48:25;;;;;;;97.55;57.55;;;1.60;97.30;;;;;;5009398;28;20031;-43
2021/01/01 06:50:52;;;;;;;89.90;55.65;;;1.60;97.30;;;;;;4991854;28;20136;-43
2021/01/01 06:53:25;;;;;;;92.15;54.97;;;1.60;97.20;;;;;;5008564;28;20386;-42
2021/01/01 06:55:51;;;;;;;96.57;56.10;;;1.60;97.20;;;;;;5008007;28;20057;-42
2021/01/01 06:58:24;;;;;;;96.15;56.85;;;1.60;97.30;;;;;;5008624;28;20045;-43
2021/01/01 07:00:50;;;;;;;88.18;54.17;;;1.60;97.30;;;;;;5009056;28;20105;-43
2021/01/01 07:03:27;;;;;;;94.82;54.42;;;1.50;97.20;;;;;;5008784;28;20472;-44
2021/01/01 07:05:54;;;;;;;90.93;52.40;;;1.50;97.30;;;;;;5008793;28;20073;-44
2021/01/01 07:08:44;;;;;;;90.40;52.60;;;1.50;97.30;;;;;;5008673;28;20095;-44
2021/01/01 07:11:09;;;;;;;91.15;52.55;;;1.50;97.30;;;;;;5008890;28;20484;-43
2021/01/01 07:13:46;;;;;;;79.68;49.22;;;1.50;97.30;;;;;;5008365;28;20034;-43
2021/01/01 07:16:13;;;;;;;88.82;52.85;;;1.50;97.30;;;;;;5008674;28;20068;-44
2021/01/01 07:18:39;;;;;;;94.80;54.83;;;1.60;97.40;;;;;;5009129;28;20397;-42
2021/01/01 07:21:06;;;;;;;88.00;51.22;;;1.60;97.30;;;;;;5008413;28;20029;-43
2021/01/01 07:23:32;;;;;;;87.93;51.25;;;1.60;97.40;;;;;;5008273;28;20509;-44
2021/01/01 07:25:59;;;;;;;97.55;55.72;;;1.60;97.30;;;;;;5008839;28;20073;-43
2021/01/01 07:28:25;;;;;;;94.57;54.00;;;1.60;97.30;;;;;;5007679;28;20522;-43
2021/01/01 07:30:51;;;;;;;102.95;59.95;;;1.60;97.20;;;;;;5008923;28;20052;-43
2021/01/01 07:33:20;;;;;;;102.82;58.67;;;1.60;97.30;;;;;;5007949;28;20382;-43
2021/01/01 07:35:50;;;;;;;92.53;55.25;;;1.60;97.20;;;;;;5008073;28;20029;-42
2021/01/01 07:38:17;;;;;;;88.82;52.97;;;1.60;97.30;;;;;;5008308;28;20624;-43
2021/01/01 07:40:43;;;;;;;108.00;60.25;;;1.60;97.20;;;;;;5008759;28;20719;-43
2021/01/01 07:43:09;;;;;;;118.68;65.57;;;1.60;97.20;;;;;;5008309;28;20087;-43
2021/01/01 07:45:35;;;;;;;109.18;62.35;;;1.60;97.30;;;;;;5008395;28;20076;-43
2021/01/01 07:48:00;;;;;;;105.20;58.75;;;1.50;97.20;;;;;;5007776;28;20117;-43
2021/01/01 07:50:29;;;;;;;103.32;58.65;;;1.60;97.30;;;;;;5007503;28;20171;-44
2021/01/01 07:53:04;;;;;;;105.28;60.53;;;1.60;97.30;;;;;;5008483;28;20659;-43
2021/01/01 07:55:31;;;;;;;108.40;61.10;;;1.60;97.30;;;;;;5007356;28;20116;-43
2021/01/01 07:58:13;;;;;;;96.55;56.75;;;1.50;97.30;;;;;;5008226;28;20030;-44
2021/01/01 08:00:45;;;;;;;97.43;56.83;;;1.60;97.30;;;;;;5008363;28;20137;-43
2021/01/01 08:03:11;;;;;;;95.68;53.35;;;1.60;97.30;;;;;;5007409;28;20056;-43
2021/01/01 08:05:38;;;;;;;97.15;55.33;;;1.60;97.40;;;;;;5008181;28;20037;-43
2021/01/01 08:08:14;;;;;;;96.05;55.03;;;1.60;97.40;;;;;;5007774;28;20540;-43
2021/01/01 08:10:40;;;;;;;94.00;55.88;;;1.70;97.40;;;;;;5008084;28;20099;-42
2021/01/01 08:13:17;;;;;;;102.28;59.88;;;1.80;97.40;;;;;;5008137;28;20022;-43
2021/01/01 08:15:42;;;;;;;107.50;59.33;;;1.80;97.40;;;;;;5007829;28;20576;-43
2021/01/01 08:18:15;;;;;;;102.22;60.33;;;1.90;97.40;;;;;;5007548;28;20113;-43
2021/01/01 08:20:46;;;;;;;109.47;62.97;;;1.90;97.30;;;;;;5008003;28;20034;-44
2021/01/01 08:23:16;;;;;;;114.55;63.42;;;2.00;97.30;;;;;;5007036;28;20023;-43
2021/01/01 08:25:43;;;;;;;110.00;63.08;;;2.00;97.30;;;;;;5007854;28;20124;-44
2021/01/01 08:28:10;;;;;;;107.25;63.28;;;2.10;97.20;;;;;;5007556;28;20025;-43
2021/01/01 08:30:40;;;;;;;105.25;58.20;;;2.10;97.20;;;;;;5007396;28;20038;-44
2021/01/01 08:33:08;;;;;;;98.50;57.20;;;2.20;97.50;;;;;;5007893;28;20022;-43
2021/01/01 08:35:34;;;;;;;96.45;54.40;;;2.20;97.20;;;;;;5007330;28;20044;-42
2021/01/01 08:38:16;;;;;;;96.10;54.95;;;2.20;97.10;;;;;;5007477;28;20033;-43
2021/01/01 08:40:43;;;;;;;89.70;53.65;;;2.30;97.10;;;;;;5007524;28;20057;-42
2021/01/01 08:43:08;;;;;;;88.55;51.00;;;2.30;97.10;;;;;;5007451;28;20049;-43
2021/01/01 08:45:34;;;;;;;82.15;48.88;;;2.30;97.10;;;;;;5006450;28;20042;-43
2021/01/01 08:48:09;;;;;;;87.38;51.67;;;2.40;97.10;;;;;;5007658;28;20049;-43
2021/01/01 08:50:41;;;;;;;93.78;53.55;;;2.40;97.10;;;;;;5006638;28;20417;-43
2021/01/01 08:53:06;;;;;;;84.63;47.60;;;2.40;97.10;;;;;;5006895;28;20030;-43
2021/01/01 08:55:32;;;;;;;81.72;48.03;;;2.40;97.00;;;;;;5007104;28;20034;-43
2021/01/01 08:58:08;;;;;;;76.32;45.63;;;2.50;97.00;;;;;;5007265;28;20103;-43
2021/01/01 09:00:34;;;;;;;79.30;46.00;;;2.50;97.00;;;;;;5006462;28;20037;-43
2021/01/01 09:03:00;;;;;;;82.57;46.67;;;2.50;97.00;;;;;;5007153;28;20022;-42
2021/01/01 09:05:28;;;;;;;78.22;46.72;;;2.50;97.30;;;;;;5005989;28;20073;-43
2021/01/01 09:08:12;;;;;;;87.07;49.05;;;2.50;97.00;;;;;;5007491;28;20034;-42
2021/01/01 09:10:39;;;;;;;71.32;42.53;;;2.60;97.00;;;;;;5006612;28;20037;-44
2021/01/01 09:13:26;;;;;;;74.15;42.22;;;2.60;97.00;;;;;;5006749;28;20026;-42
2021/01/01 09:16:07;;;;;;;70.50;40.60;;;2.60;97.00;;;;;;5006833;28;20045;-44
2021/01/01 09:18:33;;;;;;;65.13;37.95;;;2.60;96.90;;;;;;5006224;28;20552;-43
2021/01/01 09:21:12;;;;;;;69.70;41.42;;;2.60;96.90;;;;;;5006104;28;20030;-43
2021/01/01 09:23:49;;;;;;;70.40;41.30;;;2.60;96.90;;;;;;5006806;28;20052;-43
2021/01/01 09:26:24;;;;;;;65.55;36.33;;;2.60;96.90;;;;;;5006359;28;20153;-43
2021/01/01 09:29:06;;;;;;;61.90;36.30;;;2.60;96.90;;;;;;4987366;28;20130;-43
2021/01/01 09:31:33;;;;;;;62.17;36.23;;;2.60;97.00;;;;;;4993406;28;20494;-43
2021/01/01 09:34:04;;;;;;;58.30;35.72;;;2.70;97.00;;;;;;4995441;28;20068;-44
2021/01/01 09:36:33;;;;;;;60.83;34.60;;;2.70;97.00;;;;;;4995426;28;20065;-43
2021/01/01 09:38:59;;;;;;;56.50;33.22;;;2.80;97.00;;;;;;4995170;28;20019;-44
2021/01/01 09:41:26;;;;;;;51.97;33.17;;;2.90;97.00;;;;;;4996648;28;20036;-43
2021/01/01 09:43:51;;;;;;;56.00;33.88;;;3.00;97.10;;;;;;4992018;28;20434;-43
2021/01/01 09:46:17;;;;;;;52.60;32.35;;;3.10;97.10;;;;;;4983849;28;20038;-43
2021/01/01 09:48:42;;;;;;;46.95;28.20;;;3.20;96.90;;;;;;4985525;28;20506;-43
2021/01/01 09:51:08;;;;;;;47.67;28.52;;;3.30;96.90;;;;;;4989516;28;20050;-43
2021/01/01 09:53:33;;;;;;;55.42;31.30;;;3.30;96.80;;;;;;4986519;28;20078;-43
2021/01/01 09:55:59;;;;;;;52.65;32.03;;;3.40;96.70;;;;;;4985617;28;20548;-43
2021/01/01 09:58:24;;;;;;;47.78;28.08;;;3.50;96.70;;;;;;4985785;28;20029;-43
2021/01/01 10:00:51;;;;;;;52.53;30.63;;;3.50;96.60;;;;;;4985993;28;20606;-43
2021/01/01 10:03:16;;;;;;;48.17;29.75;;;3.50;96.60;;;;;;4985365;28;20057;-44
2021/01/01 10:05:42;;;;;;;46.72;29.05;;;3.60;96.60;;;;;;4986238;28;20069;-43
2021/01/01 10:08:07;;;;;;;40.85;25.63;;;3.50;96.50;;;;;;4986295;28;20470;-44
2021/01/01 10:10:33;;;;;;;40.22;24.25;;;3.60;96.50;;;;;;4984672;28;20026;-44
2021/01/01 10:12:59;;;;;;;38.95;23.98;;;3.60;96.50;;;;;;4986233;28;20030;-44
2021/01/01 10:15:25;;;;;;;32.22;21.88;;;3.60;96.50;;;;;;4985338;28;20576;-44
2021/01/01 10:17:51;;;;;;;34.45;22.15;;;3.60;96.50;;;;;;4985765;28;20019;-43
2021/01/01 10:20:16;;;;;;;30.25;19.90;;;3.70;96.50;;;;;;4988039;28;20501;-43
2021/01/01 10:22:42;;;;;;;30.13;18.67;;;3.70;96.50;;;;;;4985531;28;20122;-43
2021/01/01 10:25:08;;;;;;;29.10;19.63;;;3.70;96.50;;;;;;4985758;28;20046;-43
2021/01/01 10:27:33;;;;;;;27.25;18.52;;;3.70;96.50;;;;;;4985328;28;20026;-43
2021/01/01 10:29:59;;;;;;;30.13;18.77;;;3.70;96.50;;;;;;4985676;28;20088;-43
2021/01/01 10:32:24;;;;;;;27.70;18.00;;;3.70;96.50;;;;;;4988818;28;20034;-43
2021/01/01 10:34:50;;;;;;;30.17;19.40;;;3.70;96.50;;;;;;4989306;28;20037;-44
2021/01/01 10:37:15;;;;;;;29.45;18.23;;;3.70;96.60;;;;;;4988319;28;20458;-43
2021/01/01 10:39:41;;;;;;;26.83;16.48;;;3.80;96.60;;;;;;4989274;28;20022;-44
2021/01/01 10:42:07;;;;;;;23.73;15.25;;;3.80;96.60;;;;;;4989823;28;20411;-43
2021/01/01 10:44:33;;;;;;;27.33;18.27;;;3.90;96.70;;;;;;4988179;28;20060;-43
2021/01/01 10:46:59;;;;;;;27.40;18.50;;;4.00;96.60;;;;;;4989399;28;20583;-43
2021/01/01 10:49:25;;;;;;;27.65;17.52;;;4.10;96.60;;;;;;4988218;28;20149;-43
2021/01/01 10:51:53;;;;;;;31.08;18.08;;;4.10;96.50;;;;;;4988665;28;20027;-44
2021/01/01 10:54:19;;;;;;;27.73;16.67;;;4.20;96.50;;;;;;4988935;28;20045;-43
2021/01/01 10:56:46;;;;;;;25.80;16.17;;;4.30;96.50;;;;;;4989198;28;20042;-43
2021/01/01 10:59:12;;;;;;;26.88;16.23;;;4.40;96.50;;;;;;4988601;28;20141;-44
2021/01/01 11:01:38;;;;;;;26.70;16.65;;;4.50;96.40;;;;;;4988980;28;20038;-44
2021/01/01 11:04:03;;;;;;;29.13;17.85;;;4.50;96.40;;;;;;4992756;28;20036;-44
2021/01/01 11:06:29;;;;;;;27.05;18.25;;;4.60;96.30;;;;;;4996957;28;20918;-42
2021/01/01 11:08:54;;;;;;;27.10;16.23;;;4.70;96.30;;;;;;4999319;28;20034;-44
2021/01/01 11:11:24;;;;;;;23.25;16.42;;;4.90;96.20;;;;;;4996741;28;20023;-43
2021/01/01 11:14:06;;;;;;;23.23;14.73;;;5.00;96.20;;;;;;4997560;28;20029;-43
2021/01/01 12:22:39;;;;;;;13.98;9.68;;;5.80;95.80;;;;;;5004978;28;20113;-43
2021/01/01 12:25:07;;;;;;;14.70;9.98;;;5.80;95.80;;;;;;5007742;28;20084;-42
2021/01/01 12:27:35;;;;;;;16.33;10.73;;;5.90;95.80;;;;;;5007156;28;20029;-43
2021/01/01 12:30:08;;;;;;;15.00;11.10;;;5.90;95.80;;;;;;5007433;28;20393;-43
2021/01/01 12:32:36;;;;;;;;;;;5.90;95.80;;;;;;5007358;28;20033;-43
2021/01/01 12:35:01;;;;;;;17.38;10.85;;;5.90;95.80;;;;;;5007900;28;19916;-45
2021/01/01 12:37:27;;;;;;;14.45;9.63;;;5.90;95.70;;;;;;5006985;28;20030;-43
2021/01/01 12:39:53;;;;;;;13.73;9.43;;;6.00;95.80;;;;;;5007478;28;20549;-43
2021/01/01 12:42:19;;;;;;;15.57;10.30;;;6.00;95.80;;;;;;5006975;28;20686;-43
2021/01/01 12:44:45;;;;;;;13.63;9.20;;;6.00;95.80;;;;;;5007317;28;20121;-44
2021/01/01 12:47:11;;;;;;;14.30;10.00;;;6.00;95.80;;;;;;5007265;28;20109;-44
2021/01/01 12:49:37;;;;;;;14.70;10.20;;;6.10;95.90;;;;;;5006944;28;20172;-44
2021/01/01 12:52:02;;;;;;;16.05;10.55;;;6.10;95.80;;;;;;5007587;28;20041;-44
2021/01/01 12:54:28;;;;;;;15.25;10.23;;;6.10;95.80;;;;;;5006934;28;20064;-43
2021/01/01 12:56:53;;;;;;;15.75;10.82;;;6.10;95.80;;;;;;5007608;28;20084;-43
2021/01/01 12:59:19;;;;;;;13.68;10.65;;;6.10;95.80;;;;;;5006189;28;20040;-43
2021/01/01 13:01:44;;;;;;;14.13;9.45;;;6.10;95.80;;;;;;5007325;28;20033;-43
2021/01/01 13:04:10;;;;;;;17.05;10.73;;;6.10;95.80;;;;;;5007057;28;20109;-43
2021/01/01 13:06:35;;;;;;;15.23;10.57;;;6.10;95.80;;;;;;5006775;28;20025;-43
2021/01/01 13:09:02;;;;;;;11.27;8.52;;;6.10;95.90;;;;;;5007234;28;20064;-42
2021/01/01 13:11:31;;;;;;;15.02;9.35;;;6.10;96.00;;;;;;5006405;28;20088;-43
2021/01/01 13:13:58;;;;;;;13.38;8.95;;;6.10;96.00;;;;;;5006992;28;20485;-43
2021/01/01 13:16:25;;;;;;;14.05;9.82;;;6.10;96.00;;;;;;5007102;28;20040;-42
2021/01/01 13:18:52;;;;;;;14.10;9.80;;;6.20;96.00;;;;;;5007067;28;20060;-44
2021/01/01 13:21:37;;;;;;;13.35;8.88;;;6.20;96.00;;;;;;5006752;28;20030;-44
2021/01/01 13:24:04;;;;;;;14.68;9.93;;;6.20;95.90;;;;;;5007040;28;20468;-43
2021/01/01 13:26:30;;;;;;;13.05;9.90;;;6.30;95.90;;;;;;5006429;28;20036;-43
2021/01/01 13:28:58;;;;;;;11.70;8.85;;;6.30;95.90;;;;;;5002761;28;20113;-43
2021/01/01 13:31:39;;;;;;;12.57;9.32;;;6.20;95.90;;;;;;4992706;28;20132;-44
2021/01/01 13:34:06;;;;;;;13.90;8.95;;;6.30;96.00;;;;;;5006847;28;20716;-43
2021/01/01 13:36:32;;;;;;;9.40;8.00;;;6.30;96.00;;;;;;5006265;28;20037;-43
2021/01/01 13:38:57;;;;;;;12.07;8.48;;;6.30;96.00;;;;;;5006937;28;20030;-42
2021/01/01 13:41:23;;;;;;;11.88;9.13;;;6.20;95.90;;;;;;5006418;28;20029;-42
2021/01/01 13:43:49;;;;;;;12.77;8.75;;;6.20;96.00;;;;;;5007088;28;20040;-44
2021/01/01 13:46:22;;;;;;;16.83;10.32;;;6.10;96.00;;;;;;5006057;28;20045;-43